Time;durP1;ratioP1;P1;durP2;ratioP2;P2;SDS_P1;SDS_P2;PMS_P1;PMS_P2;Temp;Humidity;BMP_temperature;BMP_pressure;BME280_temperature;BME280_humidity;BME280_pressure;Samples;Min_cycle;Max_cycle;Signal;HPM_P1;HPM_P2
2023/03/29 00:01:12;;;;;;;0.53;0.53;;;6.60;93.80;;;;;;6127118;23;20151;-69
2023/03/29 00:03:38;;;;;;;0.63;0.63;;;6.70;93.10;;;;;;6126775;23;20487;-69
2023/03/29 00:06:05;;;;;;;0.50;0.50;;;6.60;93.30;;;;;;6126946;23;20174;-69
2023/03/29 00:08:33;;;;;;;0.40;0.40;;;6.60;93.20;;;;;;6126752;23;20206;-69
2023/03/29 00:10:59;;;;;;;0.50;0.50;;;6.60;93.30;;;;;;6126837;23;20208;-69
2023/03/29 00:13:26;;;;;;;1.00;0.90;;;6.60;93.00;;;;;;6126627;23;20153;-69
2023/03/29 00:15:55;;;;;;;0.95;0.95;;;6.60;93.10;;;;;;6126820;23;20161;-69
2023/03/29 00:18:21;;;;;;;1.30;1.20;;;6.60;93.60;;;;;;6126849;23;20172;-69
2023/03/29 00:20:56;;;;;;;0.40;0.40;;;6.60;93.80;;;;;;6126721;23;20150;-69
2023/03/29 00:23:23;;;;;;;0.50;0.50;;;6.50;93.70;;;;;;6126429;23;20473;-69
2023/03/29 00:25:49;;;;;;;3.45;0.85;;;6.40;93.50;;;;;;6126734;23;20148;-69
2023/03/29 00:28:15;;;;;;;4.03;3.17;;;6.40;94.10;;;;;;6126785;23;20622;-69
2023/03/29 00:30:41;;;;;;;0.40;0.40;;;6.50;94.30;;;;;;6126724;23;20834;-69
2023/03/29 00:33:07;;;;;;;0.40;0.40;;;6.40;93.90;;;;;;6126611;23;20177;-69
2023/03/29 00:35:33;;;;;;;0.40;0.40;;;6.40;94.20;;;;;;6100515;23;20165;-69
2023/03/29 00:37:58;;;;;;;1.37;0.57;;;6.30;94.60;;;;;;6126491;23;20173;-69
2023/03/29 00:40:26;;;;;;;0.60;0.60;;;6.30;94.80;;;;;;6126997;23;20150;-69
2023/03/29 00:42:51;;;;;;;0.57;0.57;;;6.30;94.90;;;;;;6126545;23;20188;-69
2023/03/29 00:45:25;;;;;;;0.60;0.60;;;6.40;94.40;;;;;;6126678;23;20148;-69
2023/03/29 00:47:58;;;;;;;0.40;0.40;;;6.50;94.50;;;;;;6126474;23;20560;-69
2023/03/29 00:50:47;;;;;;;0.40;0.40;;;6.60;94.40;;;;;;6126573;23;20139;-69
2023/03/29 00:53:35;;;;;;;0.65;0.65;;;6.50;94.60;;;;;;6126242;23;20139;-69
2023/03/29 00:56:14;;;;;;;0.63;0.63;;;6.50;94.30;;;;;;6099555;23;20184;-69
2023/03/29 00:59:02;;;;;;;0.40;0.40;;;6.40;94.20;;;;;;6126429;23;20173;-69
2023/03/29 01:02:00;;;;;;;0.73;0.73;;;6.40;94.60;;;;;;6126712;23;20135;-69
2023/03/29 01:04:50;;;;;;;0.40;0.40;;;6.30;94.10;;;;;;6098993;23;20538;-69
2023/03/29 01:07:31;;;;;;;0.30;0.30;;;6.40;94.60;;;;;;6126738;23;20137;-69
2023/03/29 01:10:15;;;;;;;0.70;0.70;;;6.40;94.60;;;;;;6126416;23;20178;-69
2023/03/29 01:12:47;;;;;;;0.40;0.40;;;6.40;94.60;;;;;;6126442;23;20209;-69
2023/03/29 01:15:23;;;;;;;0.85;0.85;;;6.40;94.50;;;;;;6126345;23;20153;-69
2023/03/29 01:17:52;;;;;;;0.32;0.32;;;6.50;94.20;;;;;;6126266;23;20190;-69
2023/03/29 01:20:33;;;;;;;0.40;0.40;;;6.50;94.20;;;;;;6126390;23;20148;-69
2023/03/29 01:23:16;;;;;;;0.60;0.60;;;6.50;94.30;;;;;;6126201;23;20242;-69
2023/03/29 01:25:45;;;;;;;0.40;0.40;;;6.60;94.40;;;;;;6126633;23;20146;-69
2023/03/29 01:28:20;;;;;;;0.40;0.40;;;6.50;94.30;;;;;;6126201;23;20173;-69
2023/03/29 01:31:00;;;;;;;0.40;0.40;;;6.60;94.30;;;;;;6126450;23;20573;-69
2023/03/29 01:33:32;;;;;;;0.40;0.40;;;6.50;94.40;;;;;;6126299;23;20501;-69
2023/03/29 01:36:04;;;;;;;0.40;0.40;;;6.50;94.70;;;;;;6126254;23;20135;-69
2023/03/29 01:38:47;;;;;;;0.40;0.40;;;6.40;94.20;;;;;;6126497;23;20175;-69
2023/03/29 01:41:13;;;;;;;0.40;0.40;;;6.40;94.40;;;;;;6126263;23;20138;-68
2023/03/29 01:43:50;;;;;;;1.95;1.85;;;6.40;94.60;;;;;;6126120;23;20149;-69
2023/03/29 01:46:46;;;;;;;1.35;0.82;;;6.50;94.40;;;;;;6126288;23;20139;-69
2023/03/29 01:49:41;;;;;;;0.30;0.30;;;6.60;94.40;;;;;;6100274;23;20181;-69
2023/03/29 01:52:17;;;;;;;0.40;0.40;;;6.60;94.50;;;;;;6126285;23;20185;-69
2023/03/29 01:55:10;;;;;;;0.40;0.40;;;6.60;94.50;;;;;;6126222;23;20143;-69
2023/03/29 01:57:40;;;;;;;0.43;0.43;;;6.60;94.30;;;;;;6125058;23;20188;-69
2023/03/29 02:00:09;;;;;;;0.40;0.40;;;6.60;94.30;;;;;;6126192;23;20168;-68
2023/03/29 02:02:38;;;;;;;2.15;1.60;;;6.70;94.30;;;;;;6126175;23;20484;-69
2023/03/29 02:05:05;;;;;;;0.40;0.40;;;6.70;94.30;;;;;;6126100;23;20225;-68
2023/03/29 02:07:36;;;;;;;0.88;0.88;;;6.70;94.40;;;;;;6128217;23;20157;-69
2023/03/29 02:10:03;;;;;;;0.40;0.40;;;6.70;94.10;;;;;;6128177;23;20497;-69
2023/03/29 02:12:29;;;;;;;0.40;0.40;;;6.80;93.90;;;;;;6127839;23;20151;-69
2023/03/29 02:14:57;;;;;;;0.37;0.37;;;6.80;93.50;;;;;;6127976;23;20158;-69
2023/03/29 02:17:25;;;;;;;0.73;0.73;;;6.70;93.40;;;;;;6127944;23;20730;-69
2023/03/29 02:20:08;;;;;;;0.30;0.30;;;6.70;93.90;;;;;;6127773;23;20167;-68
2023/03/29 02:22:58;;;;;;;0.30;0.30;;;6.70;94.20;;;;;;6101595;23;20507;-69
2023/03/29 02:25:24;;;;;;;0.40;0.40;;;6.80;94.20;;;;;;6101095;23;20192;-69
2023/03/29 02:27:51;;;;;;;0.40;0.40;;;6.80;93.60;;;;;;6127716;23;20150;-68
2023/03/29 02:30:19;;;;;;;0.40;0.40;;;6.80;93.70;;;;;;6128716;23;20595;-69
2023/03/29 02:33:07;;;;;;;0.60;0.60;;;6.80;93.60;;;;;;6127635;23;20155;-68
2023/03/29 02:35:55;;;;;;;0.40;0.40;;;6.80;93.70;;;;;;6128133;23;20504;-69
2023/03/29 02:38:24;;;;;;;0.40;0.40;;;6.80;93.90;;;;;;6127731;23;20183;-69
2023/03/29 02:40:51;;;;;;;0.47;0.43;;;6.80;93.90;;;;;;6127746;23;20229;-68
2023/03/29 02:43:19;;;;;;;0.40;0.40;;;6.80;93.80;;;;;;6127487;23;20146;-69
2023/03/29 02:45:46;;;;;;;0.38;0.38;;;6.80;93.40;;;;;;6127598;23;20150;-69
2023/03/29 02:48:16;;;;;;;0.40;0.40;;;6.80;93.80;;;;;;6127549;23;20170;-69
2023/03/29 02:50:45;;;;;;;0.30;0.30;;;6.80;93.70;;;;;;6127643;23;20149;-69
2023/03/29 02:53:19;;;;;;;0.57;0.57;;;6.80;93.80;;;;;;6127843;23;20527;-68
2023/03/29 02:55:45;;;;;;;0.40;0.40;;;6.80;93.70;;;;;;6101454;23;20154;-69
2023/03/29 02:58:14;;;;;;;0.50;0.43;;;6.80;93.70;;;;;;6101500;23;20492;-69
2023/03/29 03:00:47;;;;;;;0.57;0.57;;;6.80;93.20;;;;;;6127553;23;20865;-69
2023/03/29 03:03:16;;;;;;;0.40;0.40;;;6.80;93.80;;;;;;6127373;23;20159;-68
2023/03/29 03:05:42;;;;;;;0.40;0.40;;;6.90;93.60;;;;;;6127416;23;20203;-68
2023/03/29 03:08:08;;;;;;;0.32;0.32;;;7.00;93.00;;;;;;6127633;23;20174;-69
2023/03/29 03:10:35;;;;;;;0.30;0.30;;;6.90;93.00;;;;;;6127676;23;20245;-69
2023/03/29 03:13:01;;;;;;;0.40;0.40;;;7.00;92.30;;;;;;6127336;23;20381;-68
2023/03/29 03:15:27;;;;;;;0.80;0.80;;;6.90;92.20;;;;;;6127483;23;20150;-69
2023/03/29 03:17:53;;;;;;;0.50;0.50;;;7.00;92.60;;;;;;6127060;23;20460;-69
2023/03/29 03:20:21;;;;;;;0.40;0.40;;;7.10;92.40;;;;;;6127632;23;20154;-69
2023/03/29 03:22:47;;;;;;;0.50;0.50;;;7.10;92.30;;;;;;6127067;23;20157;-68
2023/03/29 03:25:21;;;;;;;0.30;0.30;;;7.10;92.60;;;;;;6127671;23;20150;-69
2023/03/29 03:27:48;;;;;;;0.40;0.40;;;7.20;92.60;;;;;;6127348;23;20195;-69
2023/03/29 03:30:15;;;;;;;0.30;0.30;;;7.20;91.70;;;;;;6101300;23;20594;-68
2023/03/29 03:32:43;;;;;;;0.40;0.40;;;7.20;91.90;;;;;;6127042;23;20489;-69
2023/03/29 03:35:10;;;;;;;0.30;0.30;;;7.20;92.20;;;;;;6127198;23;20155;-69
2023/03/29 03:37:37;;;;;;;0.40;0.40;;;7.10;92.50;;;;;;6127055;23;20175;-69
2023/03/29 03:40:10;;;;;;;0.38;0.38;;;7.20;92.70;;;;;;6127129;23;20174;-68
2023/03/29 03:42:36;;;;;;;0.40;0.40;;;7.20;92.70;;;;;;6126960;23;20218;-69
2023/03/29 03:45:02;;;;;;;0.68;0.68;;;7.20;92.90;;;;;;6127062;23;20157;-69
2023/03/29 03:47:29;;;;;;;0.40;0.40;;;7.20;92.80;;;;;;6127065;23;20155;-69
2023/03/29 03:49:55;;;;;;;0.40;0.40;;;7.30;92.60;;;;;;6126995;23;20250;-69
2023/03/29 03:52:21;;;;;;;1.73;1.37;;;7.30;92.60;;;;;;6126993;23;20188;-69
2023/03/29 03:54:48;;;;;;;0.30;0.30;;;7.30;92.50;;;;;;6127016;23;20150;-69
2023/03/29 03:57:14;;;;;;;0.40;0.40;;;7.30;92.60;;;;;;6126930;23;20610;-69
2023/03/29 03:59:40;;;;;;;0.80;0.63;;;7.20;93.00;;;;;;6126922;23;20179;-69
2023/03/29 04:02:06;;;;;;;0.40;0.40;;;7.30;92.80;;;;;;6126773;23;20238;-68
2023/03/29 04:04:32;;;;;;;0.40;0.40;;;7.30;92.50;;;;;;6127120;23;20530;-69
2023/03/29 04:07:01;;;;;;;0.30;0.30;;;7.20;92.70;;;;;;6126862;23;20178;-69
2023/03/29 04:09:32;;;;;;;0.43;0.43;;;7.30;92.90;;;;;;6100794;23;20182;-69
2023/03/29 04:11:58;;;;;;;0.40;0.40;;;7.20;93.10;;;;;;6126786;23;20146;-69
2023/03/29 04:14:24;;;;;;;0.55;0.55;;;7.30;92.40;;;;;;6100797;23;20162;-69
2023/03/29 04:16:51;;;;;;;0.40;0.40;;;7.20;92.80;;;;;;6126762;23;20171;-69
2023/03/29 04:19:17;;;;;;;0.85;0.85;;;7.30;92.90;;;;;;6126701;23;20178;-68
2023/03/29 04:21:44;;;;;;;0.40;0.40;;;7.40;92.00;;;;;;6126453;23;20512;-69
2023/03/29 04:24:11;;;;;;;2.55;2.35;;;7.40;91.00;;;;;;6126791;23;20153;-69
2023/03/29 04:26:37;;;;;;;0.40;0.40;;;7.50;91.00;;;;;;6126697;23;20466;-69
2023/03/29 04:29:03;;;;;;;0.70;0.57;;;7.60;90.00;;;;;;6126536;23;20182;-69
2023/03/29 04:31:29;;;;;;;0.40;0.40;;;7.80;90.00;;;;;;6126692;23;20379;-69
2023/03/29 04:33:55;;;;;;;0.75;0.75;;;7.80;89.30;;;;;;6126440;23;20159;-69
2023/03/29 04:36:21;;;;;;;2.93;1.53;;;7.80;87.80;;;;;;6126535;23;20179;-69
2023/03/29 04:38:47;;;;;;;0.40;0.40;;;7.80;86.90;;;;;;6126584;23;20398;-69
2023/03/29 04:41:14;;;;;;;0.40;0.40;;;7.80;86.20;;;;;;6126608;23;20152;-69
2023/03/29 04:43:40;;;;;;;0.40;0.40;;;7.90;83.00;;;;;;6126403;23;20148;-69
2023/03/29 04:46:06;;;;;;;0.43;0.43;;;8.00;82.80;;;;;;6126549;23;20186;-69
2023/03/29 04:48:32;;;;;;;0.40;0.40;;;8.10;83.10;;;;;;6126675;23;20171;-69
2023/03/29 04:50:59;;;;;;;0.73;0.73;;;8.10;79.10;;;;;;6126554;23;20157;-69
2023/03/29 04:53:24;;;;;;;0.40;0.40;;;8.20;80.30;;;;;;6126360;23;20147;-69
2023/03/29 04:55:52;;;;;;;0.30;0.30;;;8.20;79.40;;;;;;6126433;23;20178;-69
2023/03/29 04:58:17;;;;;;;0.85;0.85;;;8.20;79.30;;;;;;6126909;23;20166;-69
2023/03/29 05:00:44;;;;;;;0.30;0.30;;;8.30;77.40;;;;;;6126582;23;20174;-69
2023/03/29 05:03:12;;;;;;;0.40;0.40;;;8.40;79.50;;;;;;6126372;23;20198;-68
2023/03/29 05:05:38;;;;;;;0.40;0.40;;;8.30;82.90;;;;;;6126411;23;20147;-69
2023/03/29 05:08:03;;;;;;;0.97;0.60;;;8.30;82.50;;;;;;6126301;23;20210;-69
2023/03/29 05:10:29;;;;;;;0.70;0.50;;;8.40;79.60;;;;;;6126359;23;20216;-69
2023/03/29 05:12:55;;;;;;;0.40;0.40;;;8.40;74.00;;;;;;6126142;23;20151;-69
2023/03/29 05:15:21;;;;;;;0.40;0.40;;;8.50;75.90;;;;;;6126239;23;20379;-69
2023/03/29 05:17:47;;;;;;;1.30;1.20;;;8.50;76.10;;;;;;6125846;23;20167;-69
2023/03/29 05:20:14;;;;;;;0.63;0.63;;;8.60;73.20;;;;;;6126339;23;20148;-69
2023/03/29 05:22:39;;;;;;;1.95;0.88;;;8.70;74.40;;;;;;6125999;23;20446;-68
2023/03/29 05:25:06;;;;;;;0.70;0.70;;;8.70;78.30;;;;;;6125747;23;20151;-69
2023/03/29 05:27:33;;;;;;;1.20;0.77;;;8.70;78.00;;;;;;6125067;23;20187;-69
2023/03/29 05:30:00;;;;;;;1.77;1.67;;;8.60;77.20;;;;;;6100089;23;20628;-69
2023/03/29 05:32:26;;;;;;;0.40;0.40;;;8.60;77.80;;;;;;6126095;23;20158;-69
2023/03/29 05:34:52;;;;;;;0.70;0.70;;;8.70;74.90;;;;;;6126305;23;20152;-69
2023/03/29 05:37:18;;;;;;;1.60;1.50;;;8.70;77.80;;;;;;6126173;23;20438;-69
2023/03/29 05:39:44;;;;;;;0.30;0.30;;;8.70;76.80;;;;;;6126599;23;20168;-69
2023/03/29 05:42:12;;;;;;;0.40;0.40;;;8.80;75.10;;;;;;6127959;23;20394;-69
2023/03/29 05:44:38;;;;;;;0.65;0.65;;;8.90;76.00;;;;;;6102307;23;20155;-69
2023/03/29 05:47:04;;;;;;;0.40;0.40;;;8.90;76.00;;;;;;6128178;23;20182;-69
2023/03/29 05:49:30;;;;;;;0.30;0.30;;;9.00;76.10;;;;;;6128071;23;20402;-69
2023/03/29 05:51:57;;;;;;;0.30;0.30;;;9.00;76.00;;;;;;6128216;23;20647;-69
2023/03/29 05:54:23;;;;;;;0.40;0.40;;;9.10;75.70;;;;;;6126337;23;20155;-69
2023/03/29 05:56:49;;;;;;;0.50;0.50;;;9.00;76.20;;;;;;6127023;23;20198;-69
2023/03/29 05:59:16;;;;;;;1.00;1.00;;;9.10;77.00;;;;;;6128079;23;20167;-69
2023/03/29 06:01:44;;;;;;;0.70;0.70;;;9.10;76.50;;;;;;6127437;23;20148;-70
2023/03/29 06:04:11;;;;;;;0.38;0.38;;;9.20;74.50;;;;;;6128067;23;20215;-70
2023/03/29 06:06:36;;;;;;;0.88;0.63;;;9.30;75.00;;;;;;6128744;23;20152;-70
2023/03/29 06:09:02;;;;;;;1.80;1.70;;;9.50;76.50;;;;;;6128312;23;20647;-70
2023/03/29 06:11:28;;;;;;;0.40;0.40;;;9.60;76.90;;;;;;6127251;23;20153;-70
2023/03/29 06:13:54;;;;;;;2.97;1.40;;;9.80;74.40;;;;;;6127760;23;20591;-71
2023/03/29 06:16:19;;;;;;;0.40;0.40;;;9.90;71.30;;;;;;6127774;23;20172;-71
2023/03/29 06:18:45;;;;;;;0.93;0.50;;;10.20;70.40;;;;;;6127847;23;20480;-71
2023/03/29 06:21:11;;;;;;;1.47;1.17;;;10.40;70.20;;;;;;6127781;23;20149;-71
2023/03/29 06:23:36;;;;;;;0.40;0.40;;;10.70;67.30;;;;;;6127703;23;20135;-71
2023/03/29 06:26:02;;;;;;;0.40;0.40;;;10.90;64.10;;;;;;6127606;23;20180;-71
2023/03/29 06:28:28;;;;;;;0.40;0.40;;;11.10;64.70;;;;;;6127713;23;20164;-70
2023/03/29 06:30:55;;;;;;;0.80;0.70;;;11.10;61.20;;;;;;6127763;23;20203;-71
2023/03/29 06:33:21;;;;;;;2.35;0.57;;;11.10;67.20;;;;;;6127610;23;20144;-71
2023/03/29 06:35:48;;;;;;;3.53;1.67;;;11.10;64.90;;;;;;6127779;23;20148;-71
2023/03/29 06:38:14;;;;;;;0.40;0.40;;;11.10;64.70;;;;;;6128095;23;20187;-71
2023/03/29 06:40:41;;;;;;;1.27;0.85;;;11.20;64.60;;;;;;6127703;23;20376;-71
2023/03/29 06:43:08;;;;;;;0.60;0.60;;;11.30;62.90;;;;;;6127664;23;20155;-71
2023/03/29 06:45:36;;;;;;;0.30;0.30;;;11.30;63.90;;;;;;6127706;23;20378;-71
2023/03/29 06:48:03;;;;;;;0.80;0.60;;;11.30;60.60;;;;;;6127578;23;20456;-71
2023/03/29 06:50:29;;;;;;;0.63;0.63;;;11.40;61.50;;;;;;6127588;23;20372;-71
2023/03/29 06:52:56;;;;;;;0.40;0.40;;;11.30;62.10;;;;;;6127105;23;20384;-71
2023/03/29 06:55:23;;;;;;;0.30;0.30;;;11.30;66.90;;;;;;6127567;23;20511;-71
2023/03/29 06:57:48;;;;;;;0.40;0.40;;;11.30;65.70;;;;;;6127317;23;20824;-71
2023/03/29 07:00:17;;;;;;;1.13;0.50;;;11.30;65.10;;;;;;6127759;23;20396;-71
2023/03/29 07:02:44;;;;;;;0.50;0.50;;;11.40;66.50;;;;;;6127370;23;20445;-70
2023/03/29 07:05:12;;;;;;;3.60;2.37;;;11.50;63.40;;;;;;6127417;23;20832;-70
2023/03/29 07:07:52;;;;;;;0.43;0.43;;;11.60;64.10;;;;;;6101500;23;20398;-70
2023/03/29 07:10:20;;;;;;;0.30;0.30;;;11.70;64.80;;;;;;6127499;23;20436;-69
2023/03/29 07:12:47;;;;;;;1.37;1.37;;;11.80;62.60;;;;;;6126784;23;20870;-69
2023/03/29 07:15:13;;;;;;;0.83;0.83;;;11.90;63.90;;;;;;6127407;23;20368;-69
2023/03/29 07:17:38;;;;;;;0.40;0.40;;;12.00;66.70;;;;;;6127231;23;20422;-69
2023/03/29 07:20:11;;;;;;;0.50;0.50;;;12.10;62.40;;;;;;6127212;23;20848;-69
2023/03/29 07:22:37;;;;;;;0.40;0.40;;;12.20;58.60;;;;;;6127168;23;20164;-69
2023/03/29 07:25:03;;;;;;;1.13;0.60;;;12.30;57.40;;;;;;6127594;23;20459;-69
2023/03/29 07:27:28;;;;;;;0.67;0.67;;;12.40;55.10;;;;;;6127276;23;20183;-69
2023/03/29 07:29:55;;;;;;;0.50;0.50;;;12.50;54.40;;;;;;6127225;23;20392;-69
2023/03/29 07:32:21;;;;;;;0.67;0.67;;;12.60;53.60;;;;;;6126950;23;20560;-69
2023/03/29 07:34:48;;;;;;;0.37;0.37;;;12.60;55.40;;;;;;6127211;23;20386;-69
2023/03/29 07:37:13;;;;;;;0.70;0.70;;;12.50;61.40;;;;;;6127055;23;20217;-69
2023/03/29 07:39:39;;;;;;;0.40;0.40;;;12.50;60.80;;;;;;6127117;23;20390;-69
2023/03/29 07:42:05;;;;;;;0.40;0.40;;;12.50;61.10;;;;;;6126987;23;20176;-69
2023/03/29 07:44:32;;;;;;;0.30;0.30;;;12.60;65.90;;;;;;6127059;23;20230;-69
2023/03/29 07:47:00;;;;;;;0.40;0.40;;;12.70;63.50;;;;;;6127040;23;20380;-69
2023/03/29 07:49:26;;;;;;;0.60;0.60;;;12.90;60.70;;;;;;6127220;23;20399;-69
2023/03/29 07:51:53;;;;;;;0.40;0.40;;;13.20;58.30;;;;;;6126830;23;20395;-70
2023/03/29 07:54:19;;;;;;;0.93;0.93;;;13.50;54.80;;;;;;6126999;23;20171;-69
2023/03/29 07:56:46;;;;;;;0.40;0.40;;;13.80;54.10;;;;;;6100934;23;20911;-69
2023/03/29 07:59:12;;;;;;;0.50;0.40;;;14.00;52.40;;;;;;6126845;23;20384;-69
2023/03/29 08:01:39;;;;;;;0.40;0.40;;;14.20;52.20;;;;;;6126712;23;20455;-69
2023/03/29 08:04:06;;;;;;;0.40;0.40;;;14.40;49.60;;;;;;6100596;23;20391;-70
2023/03/29 08:06:32;;;;;;;0.60;0.60;;;14.20;48.50;;;;;;6126906;23;20382;-70
2023/03/29 08:08:58;;;;;;;0.40;0.40;;;14.20;49.30;;;;;;6126771;23;20433;-69
2023/03/29 08:11:24;;;;;;;0.40;0.40;;;14.20;49.60;;;;;;6127007;23;20454;-69
2023/03/29 08:13:50;;;;;;;0.40;0.40;;;14.10;49.00;;;;;;6126613;23;20427;-69
2023/03/29 08:16:16;;;;;;;0.30;0.30;;;14.30;48.00;;;;;;6126736;23;20488;-69
2023/03/29 08:18:42;;;;;;;0.30;0.30;;;14.60;48.20;;;;;;6126715;23;20894;-70
2023/03/29 08:21:08;;;;;;;0.60;0.60;;;14.70;46.60;;;;;;6126567;23;20372;-70
2023/03/29 08:23:34;;;;;;;0.70;0.40;;;14.80;46.90;;;;;;6126654;23;20213;-69
2023/03/29 08:26:00;;;;;;;0.30;0.30;;;14.80;47.60;;;;;;6126776;23;20368;-69
2023/03/29 08:28:26;;;;;;;0.40;0.40;;;14.90;46.70;;;;;;6126626;23;20212;-69
2023/03/29 08:30:52;;;;;;;0.40;0.40;;;15.00;47.20;;;;;;6127153;23;20386;-69
2023/03/29 08:33:18;;;;;;;0.30;0.30;;;15.30;46.40;;;;;;6126479;23;20371;-69
2023/03/29 08:35:44;;;;;;;0.40;0.40;;;15.50;45.90;;;;;;6126673;23;20171;-70
2023/03/29 08:38:10;;;;;;;0.50;0.50;;;15.60;45.00;;;;;;6126494;23;20179;-69
2023/03/29 08:40:36;;;;;;;0.30;0.30;;;15.60;44.50;;;;;;6126630;23;20151;-69
2023/03/29 08:43:30;;;;;;;0.80;0.80;;;15.50;43.70;;;;;;6126746;23;20371;-70
2023/03/29 08:46:07;;;;;;;0.50;0.40;;;15.50;45.40;;;;;;6119380;23;20800;-69
2023/03/29 08:48:40;;;;;;;0.40;0.40;;;15.40;43.80;;;;;;6126682;23;20476;-69
2023/03/29 08:51:20;;;;;;;0.40;0.40;;;15.30;44.70;;;;;;6126695;23;20863;-69
2023/03/29 08:53:52;;;;;;;0.50;0.50;;;15.30;44.70;;;;;;6126353;23;20811;-69
2023/03/29 08:56:23;;;;;;;0.40;0.30;;;15.10;43.70;;;;;;6126424;23;20419;-70
2023/03/29 08:58:51;;;;;;;0.90;0.50;;;14.90;43.90;;;;;;6126615;23;20782;-69
2023/03/29 09:01:17;;;;;;;0.30;0.30;;;14.70;42.90;;;;;;6100545;23;20388;-69
2023/03/29 09:03:48;;;;;;;0.37;0.37;;;14.60;43.50;;;;;;6126223;23;20376;-69
2023/03/29 09:06:15;;;;;;;0.73;0.50;;;14.50;43.60;;;;;;6126440;23;20370;-69
2023/03/29 09:08:46;;;;;;;0.90;0.90;;;14.50;43.00;;;;;;6126336;23;20475;-69
2023/03/29 09:11:35;;;;;;;0.30;0.30;;;14.40;43.80;;;;;;6126491;23;20370;-69
2023/03/29 09:14:25;;;;;;;0.37;0.37;;;14.40;52.50;;;;;;6126197;23;20748;-69
2023/03/29 09:17:30;;;;;;;2.83;1.60;;;14.40;49.40;;;;;;6125002;23;20497;-69
2023/03/29 09:20:09;;;;;;;0.57;0.57;;;14.40;45.80;;;;;;6070865;23;20841;-69
2023/03/29 09:22:40;;;;;;;0.40;0.40;;;14.50;46.10;;;;;;6124755;23;20391;-69
2023/03/29 09:25:20;;;;;;;0.60;0.57;;;14.60;46.30;;;;;;6125756;23;20436;-70
2023/03/29 09:27:51;;;;;;;0.83;0.83;;;14.60;46.40;;;;;;6126153;23;20669;-70
2023/03/29 09:30:50;;;;;;;0.30;0.30;;;14.50;47.20;;;;;;6125427;23;20381;-70
2023/03/29 09:33:22;;;;;;;1.00;1.00;;;14.20;51.70;;;;;;6126268;23;20372;-70
2023/03/29 09:36:00;;;;;;;0.40;0.40;;;14.00;52.60;;;;;;6100395;23;20735;-69
2023/03/29 09:38:29;;;;;;;0.37;0.37;;;13.90;53.00;;;;;;6126387;23;20393;-69
2023/03/29 09:41:03;;;;;;;0.50;0.50;;;13.90;58.20;;;;;;6126131;23;20420;-69
2023/03/29 09:43:32;;;;;;;0.50;0.43;;;13.80;56.30;;;;;;6126077;23;20348;-70
2023/03/29 09:46:03;;;;;;;0.57;0.57;;;13.80;58.30;;;;;;6126514;23;20360;-69
2023/03/29 09:48:36;;;;;;;0.40;0.40;;;13.90;50.70;;;;;;6126168;23;20398;-69
2023/03/29 09:51:04;;;;;;;0.40;0.40;;;14.00;52.50;;;;;;6126437;23;20364;-70
2023/03/29 09:53:30;;;;;;;0.40;0.40;;;14.30;53.20;;;;;;6126091;23;20379;-69
2023/03/29 09:55:57;;;;;;;0.60;0.60;;;14.60;49.00;;;;;;6126107;23;20368;-69
2023/03/29 09:58:30;;;;;;;0.50;0.43;;;14.90;46.90;;;;;;6126260;23;20836;-70
2023/03/29 10:00:57;;;;;;;1.70;1.07;;;15.20;45.60;;;;;;6125946;23;20407;-70
2023/03/29 10:03:26;;;;;;;0.50;0.50;;;15.50;46.30;;;;;;6126045;23;20389;-70
2023/03/29 10:05:54;;;;;;;0.40;0.40;;;15.50;45.10;;;;;;6126055;23;20467;-70
2023/03/29 10:08:37;;;;;;;0.30;0.30;;;15.60;46.40;;;;;;6126073;23;20410;-70
2023/03/29 10:11:08;;;;;;;0.77;0.60;;;15.80;45.90;;;;;;6125305;23;20826;-72
2023/03/29 10:13:42;;;;;;;0.30;0.30;;;15.80;43.60;;;;;;6126055;23;20448;-71
2023/03/29 10:16:24;;;;;;;0.30;0.30;;;16.00;42.20;;;;;;6126961;23;20360;-69
2023/03/29 10:18:50;;;;;;;0.30;0.30;;;16.60;42.10;;;;;;6125300;23;20483;-69
2023/03/29 10:21:20;;;;;;;0.40;0.40;;;17.20;44.40;;;;;;6100033;23;20380;-69
2023/03/29 10:23:48;;;;;;;0.70;0.70;;;17.70;43.10;;;;;;6126006;23;20349;-69
2023/03/29 10:26:31;;;;;;;0.97;0.93;;;17.80;43.00;;;;;;6126166;23;20753;-69
2023/03/29 10:29:00;;;;;;;0.30;0.30;;;17.80;42.60;;;;;;6126267;23;20392;-69
2023/03/29 10:31:30;;;;;;;0.40;0.40;;;17.70;40.80;;;;;;6128505;23;20364;-70
2023/03/29 10:33:56;;;;;;;0.60;0.60;;;17.60;40.00;;;;;;6126689;23;20665;-71
2023/03/29 10:36:25;;;;;;;0.70;0.70;;;17.40;42.20;;;;;;6125847;23;20416;-71
2023/03/29 10:38:53;;;;;;;0.33;0.33;;;17.10;42.20;;;;;;6127887;23;20416;-71
2023/03/29 10:41:21;;;;;;;0.50;0.50;;;16.90;41.70;;;;;;6126421;23;20361;-71
2023/03/29 10:43:50;;;;;;;0.40;0.40;;;16.80;42.30;;;;;;6127510;23;20376;-71
2023/03/29 10:46:24;;;;;;;0.37;0.37;;;16.70;42.00;;;;;;6127964;23;20407;-70
2023/03/29 10:49:04;;;;;;;1.33;0.80;;;16.50;41.60;;;;;;6101986;23;20465;-70
2023/03/29 10:51:29;;;;;;;0.30;0.30;;;16.50;42.30;;;;;;6128405;23;20660;-71
2023/03/29 10:53:59;;;;;;;0.40;0.40;;;16.60;44.40;;;;;;6101494;23;20434;-71
2023/03/29 10:56:41;;;;;;;0.30;0.30;;;16.90;44.30;;;;;;6128344;23;20176;-71
2023/03/29 10:59:18;;;;;;;0.40;0.40;;;17.20;41.70;;;;;;6127890;23;20454;-71
2023/03/29 11:01:57;;;;;;;0.40;0.40;;;17.60;41.00;;;;;;6128041;23;20396;-71
2023/03/29 11:04:41;;;;;;;0.60;0.60;;;17.90;41.00;;;;;;6102324;23;20415;-69
2023/03/29 11:07:28;;;;;;;0.40;0.40;;;18.00;41.00;;;;;;6127809;23;20403;-69
2023/03/29 11:10:25;;;;;;;0.30;0.30;;;18.00;40.00;;;;;;6127932;23;20428;-69
2023/03/29 11:13:09;;;;;;;0.50;0.50;;;17.90;41.30;;;;;;6101378;23;20378;-68
2023/03/29 11:15:41;;;;;;;0.40;0.40;;;18.00;40.50;;;;;;6128097;23;20377;-69
2023/03/29 11:18:26;;;;;;;1.53;0.53;;;18.20;41.50;;;;;;6127255;23;20898;-69
2023/03/29 11:20:57;;;;;;;0.37;0.37;;;18.50;40.00;;;;;;6127940;23;20353;-68
2023/03/29 11:23:54;;;;;;;0.40;0.40;;;18.80;40.70;;;;;;6127439;23;20354;-69
2023/03/29 11:26:25;;;;;;;0.40;0.40;;;19.00;39.00;;;;;;6101771;23;20404;-68
2023/03/29 11:29:09;;;;;;;0.80;0.50;;;19.10;39.20;;;;;;6127302;23;20392;-69
2023/03/29 11:32:06;;;;;;;0.30;0.30;;;19.00;39.50;;;;;;6127673;23;20377;-68
2023/03/29 11:35:02;;;;;;;0.50;0.40;;;19.00;38.30;;;;;;6127596;23;20735;-69
2023/03/29 11:38:00;;;;;;;0.40;0.40;;;18.90;39.10;;;;;;6127666;23;20729;-68
2023/03/29 11:40:39;;;;;;;0.40;0.40;;;19.00;39.90;;;;;;6127321;23;20372;-69
2023/03/29 11:43:14;;;;;;;0.40;0.40;;;18.80;38.60;;;;;;6127390;23;20417;-71
2023/03/29 11:45:48;;;;;;;0.80;0.80;;;18.70;40.30;;;;;;6127810;23;20348;-71
2023/03/29 11:48:35;;;;;;;0.50;0.50;;;18.90;40.10;;;;;;6101625;23;20409;-71
2023/03/29 11:51:20;;;;;;;0.40;0.40;;;18.90;39.80;;;;;;6127430;23;20370;-71
2023/03/29 11:54:00;;;;;;;2.83;0.77;;;18.90;40.20;;;;;;6127013;23;20397;-71
2023/03/29 11:57:06;;;;;;;0.70;0.70;;;18.80;40.80;;;;;;6127846;23;20442;-72
2023/03/29 11:59:43;;;;;;;0.87;0.50;;;18.70;40.00;;;;;;6111070;23;20722;-73
2023/03/29 12:02:30;;;;;;;0.63;0.63;;;18.60;38.90;;;;;;6127111;23;20357;-73
2023/03/29 12:05:00;;;;;;;4.00;1.23;;;18.50;39.60;;;;;;6127470;23;20670;-73
2023/03/29 12:07:33;;;;;;;0.80;0.50;;;18.40;39.30;;;;;;6127065;23;20383;-73
2023/03/29 12:10:06;;;;;;;0.30;0.30;;;18.30;38.50;;;;;;6100867;23;20402;-72
2023/03/29 12:12:46;;;;;;;0.50;0.50;;;18.20;38.70;;;;;;6126877;23;20364;-73
2023/03/29 12:15:30;;;;;;;0.30;0.30;;;18.10;40.70;;;;;;6127047;23;20420;-73
2023/03/29 12:18:22;;;;;;;0.40;0.40;;;17.70;40.80;;;;;;6127108;23;20408;-73
2023/03/29 12:20:56;;;;;;;0.30;0.30;;;17.80;41.00;;;;;;6101331;23;20785;-73
2023/03/29 12:23:22;;;;;;;0.30;0.30;;;18.10;41.40;;;;;;6126518;23;20444;-73
2023/03/29 12:26:15;;;;;;;0.70;0.53;;;18.60;41.70;;;;;;6127591;23;20379;-72
2023/03/29 12:29:04;;;;;;;0.50;0.50;;;18.70;39.80;;;;;;6126925;23;20172;-72
2023/03/29 12:31:47;;;;;;;0.50;0.50;;;18.70;39.80;;;;;;6126717;23;20377;-73
2023/03/29 12:34:32;;;;;;;0.90;0.90;;;18.60;40.30;;;;;;6126761;23;20356;-72
2023/03/29 12:37:36;;;;;;;0.40;0.40;;;18.30;40.60;;;;;;6127050;23;20439;-73
2023/03/29 12:40:11;;;;;;;0.40;0.40;;;18.10;39.40;;;;;;6127301;23;20383;-71
2023/03/29 12:43:02;;;;;;;0.40;0.40;;;18.10;40.30;;;;;;6124479;23;20360;-73
2023/03/29 12:45:51;;;;;;;0.40;0.40;;;18.10;41.70;;;;;;6126671;23;20697;-73
2023/03/29 12:48:24;;;;;;;0.30;0.30;;;18.20;42.50;;;;;;6124269;23;20459;-73
2023/03/29 12:50:52;;;;;;;0.80;0.80;;;17.80;40.70;;;;;;6126358;23;20356;-72
2023/03/29 12:53:25;;;;;;;0.30;0.30;;;17.80;40.90;;;;;;6125244;23;20487;-73
2023/03/29 12:56:03;;;;;;;0.50;0.50;;;17.80;40.80;;;;;;6126442;23;20922;-73
2023/03/29 12:58:43;;;;;;;0.47;0.47;;;17.90;42.50;;;;;;6126660;23;21006;-73
2023/03/29 13:01:21;;;;;;;0.40;0.40;;;17.90;42.00;;;;;;6101287;23;20365;-73
2023/03/29 13:03:54;;;;;;;0.30;0.30;;;17.80;41.40;;;;;;6100587;23;20375;-72
2023/03/29 13:06:28;;;;;;;0.43;0.43;;;17.80;42.30;;;;;;6126789;23;20348;-73
2023/03/29 13:09:00;;;;;;;0.40;0.40;;;17.50;43.00;;;;;;6126506;23;20428;-73
2023/03/29 13:11:36;;;;;;;0.50;0.50;;;17.50;43.20;;;;;;6127237;23;20368;-73
2023/03/29 13:14:15;;;;;;;0.40;0.40;;;17.50;44.40;;;;;;6126807;23;20434;-73
2023/03/29 13:16:42;;;;;;;0.40;0.40;;;17.70;44.80;;;;;;6100798;23;20555;-73